Time;durP1;ratioP1;P1;durP2;ratioP2;P2;SDS_P1;SDS_P2;PMS_P1;PMS_P2;Temp;Humidity;BMP_temperature;BMP_pressure;BME280_temperature;BME280_humidity;BME280_pressure;Samples;Min_cycle;Max_cycle;Signal;HPM_P1;HPM_P2
2020/12/26 00:00:48;;;;;;;;;;;;;;;21.40;32.29;102593.66;3132692;27;116568;-58
2020/12/26 00:02:21;;;;;;;;;;;;;;;21.41;32.05;102599.03;3132366;27;115922;-60
2020/12/26 00:03:52;;;;;;;;;;;;;;;21.40;32.71;102588.88;3132430;27;114775;-58
2020/12/26 00:05:23;;;;;;;;;;;;;;;21.43;32.31;102598.75;3134862;27;116049;-57
2020/12/26 00:06:54;;;;;;;;;;;;;;;21.41;32.35;102595.38;3133190;27;114248;-57
2020/12/26 00:08:25;;;;;;;;;;;;;;;21.41;32.20;102587.78;3119299;27;113905;-59
2020/12/26 00:09:56;;;;;;;;;;;;;;;21.42;32.71;102589.47;3129099;27;114247;-59
2020/12/26 00:11:27;;;;;;;;;;;;;;;21.41;32.40;102587.78;3120890;27;114047;-59
2020/12/26 00:12:58;;;;;;;;;;;;;;;21.40;32.64;102591.69;3129821;27;113886;-58
2020/12/26 00:14:30;;;;;;;;;;;;;;;21.40;32.87;102582.41;3117923;27;114253;-59
2020/12/26 00:16:04;;;;;;;;;;;;;;;21.40;32.63;102588.03;3130143;27;114028;-59
2020/12/26 00:17:38;;;;;;;;;;;;;;;21.37;32.91;102578.19;3120237;27;114534;-59
2020/12/26 00:19:14;;;;;;;;;;;;;;;21.36;32.93;102568.06;3115031;27;114207;-58
2020/12/26 00:20:46;;;;;;;;;;;;;;;21.34;33.15;102561.88;3131054;27;114408;-59
2020/12/26 00:22:17;;;;;;;;;;;;;;;21.31;33.11;102568.03;3133664;27;114739;-60
2020/12/26 00:23:48;;;;;;;;;;;;;;;21.29;33.55;102571.16;3130673;27;115035;-58
2020/12/26 00:25:19;;;;;;;;;;;;;;;21.32;33.11;102577.31;3116874;27;114686;-58
2020/12/26 00:26:51;;;;;;;;;;;;;;;21.32;33.25;102566.94;3125537;27;113911;-58
2020/12/26 00:28:24;;;;;;;;;;;;;;;21.33;33.41;102576.22;3137670;27;113937;-58
2020/12/26 00:29:55;;;;;;;;;;;;;;;21.33;33.74;102574.25;3131855;27;115378;-58
2020/12/26 00:31:26;;;;;;;;;;;;;;;21.35;33.82;102571.19;3134593;27;115304;-60
2020/12/26 00:32:59;;;;;;;;;;;;;;;21.35;33.59;102568.38;3135453;27;114179;-60
2020/12/26 00:34:30;;;;;;;;;;;;;;;21.35;33.79;102569.19;3122440;27;117124;-60
2020/12/26 00:36:04;;;;;;;;;;;;;;;21.35;33.81;102574.81;3120867;27;115315;-63
2020/12/26 00:37:35;;;;;;;;;;;;;;;21.36;34.27;102572.84;3126765;27;114889;-63
2020/12/26 00:39:06;;;;;;;;;;;;;;;21.36;33.83;102568.06;3133788;27;115465;-63
2020/12/26 00:40:37;;;;;;;;;;;;;;;21.36;34.05;102564.41;3133887;27;114432;-63
2020/12/26 00:42:09;;;;;;;;;;;;;;;21.36;34.05;102564.41;3134891;27;115161;-62
2020/12/26 00:43:41;;;;;;;;;;;;;;;21.36;33.89;102561.59;3134501;27;114638;-63
2020/12/26 00:45:12;;;;;;;;;;;;;;;21.34;34.00;102553.47;3120015;27;115893;-63
2020/12/26 00:46:43;;;;;;;;;;;;;;;21.34;33.92;102552.59;3130609;27;115222;-63
2020/12/26 00:48:15;;;;;;;;;;;;;;;21.34;34.18;102552.59;3134824;27;117029;-63
2020/12/26 00:49:46;;;;;;;;;;;;;;;21.32;34.04;102550.06;3138064;27;115394;-63
2020/12/26 00:51:17;;;;;;;;;;;;;;;21.33;34.38;102539.66;3121772;27;115903;-63
2020/12/26 00:52:48;;;;;;;;;;;;;;;21.32;34.46;102530.38;3130105;27;114782;-63
2020/12/26 00:54:19;;;;;;;;;;;;;;;21.33;34.87;102532.06;3133134;27;115845;-63
2020/12/26 00:55:50;;;;;;;;;;;;;;;21.33;35.28;102529.25;3134315;27;114819;-63
2020/12/26 00:57:21;;;;;;;;;;;;;;;21.35;35.21;102517.75;3133768;27;114599;-62
2020/12/26 00:58:53;;;;;;;;;;;;;;;21.36;35.61;102511.84;3133465;27;115757;-63
2020/12/26 01:00:25;;;;;;;;;;;;;;;21.39;35.69;102516.94;3134101;27;115977;-63
2020/12/26 01:01:56;;;;;;;;;;;;;;;21.40;36.22;102512.97;3135664;27;117743;-63
2020/12/26 01:03:27;;;;;;;;;;;;;;;21.43;36.14;102517.22;3120574;27;115852;-63
2020/12/26 01:04:58;;;;;;;;;;;;;;;21.44;36.13;102511.28;3115961;27;115672;-63
2020/12/26 01:06:30;;;;;;;;;;;;;;;21.47;36.18;102504.28;3130343;27;116583;-63
2020/12/26 01:08:01;;;;;;;;;;;;;;;21.48;36.30;102500.34;3134374;27;114968;-62
2020/12/26 01:09:37;;;;;;;;;;;;;;;21.50;36.50;102503.72;3134295;27;115824;-62
2020/12/26 01:11:09;;;;;;;;;;;;;;;21.51;36.56;102506.25;3138362;27;115902;-63
2020/12/26 01:12:41;;;;;;;;;;;;;;;21.53;36.53;102497.56;3119935;27;114609;-63
2020/12/26 01:14:12;;;;;;;;;;;;;;;21.53;36.75;102495.56;3128807;27;114446;-63
2020/12/26 01:15:43;;;;;;;;;;;;;;;21.55;36.91;102486.88;3132230;27;114476;-60
2020/12/26 01:17:15;;;;;;;;;;;;;;;21.55;37.34;102479.28;3134655;27;114014;-60
2020/12/26 01:19:00;;;;;;;;;;;;;;;21.57;37.09;102487.44;3132437;27;114112;-60
2020/12/26 01:20:31;;;;;;;;;;;;;;;21.56;37.05;102475.34;3134288;27;114043;-60
2020/12/26 01:22:03;;;;;;;;;;;;;;;21.59;36.93;102476.75;3133878;27;114070;-60
2020/12/26 01:23:34;;;;;;;;;;;;;;;21.58;36.63;102481.50;3133137;27;114239;-60
2020/12/26 01:25:06;;;;;;;;;;;;;;;21.59;36.88;102460.72;3133875;27;115190;-60
2020/12/26 01:26:37;;;;;;;;;;;;;;;21.58;36.56;102455.34;3120727;27;114167;-59
2020/12/26 01:28:08;;;;;;;;;;;;;;;21.58;36.75;102446.91;3119109;27;114145;-60
2020/12/26 01:29:40;;;;;;;;;;;;;;;21.58;36.60;102456.19;3126367;27;116005;-60
2020/12/26 01:31:12;;;;;;;;;;;;;;;21.58;36.43;102447.75;3134247;27;114236;-60
2020/12/26 01:32:43;;;;;;;;;;;;;;;21.58;36.39;102449.72;3137841;27;115492;-59
2020/12/26 01:34:14;;;;;;;;;;;;;;;21.55;36.73;102445.53;3132821;27;115360;-59
2020/12/26 01:35:45;;;;;;;;;;;;;;;21.55;36.34;102434.28;3134324;27;115261;-59
2020/12/26 01:37:17;;;;;;;;;;;;;;;21.54;36.52;102431.72;3119588;27;115537;-60
2020/12/26 01:38:48;;;;;;;;;;;;;;;21.52;36.64;102426.41;3127698;27;115881;-60
2020/12/26 01:40:19;;;;;;;;;;;;;;;21.52;36.64;102432.03;3133819;27;115539;-58
2020/12/26 01:41:51;;;;;;;;;;;;;;;21.52;36.65;102419.94;3120402;27;115928;-58
2020/12/26 01:43:22;;;;;;;;;;;;;;;21.50;36.45;102419.34;3129668;27;115946;-58
2020/12/26 01:44:53;;;;;;;;;;;;;;;21.49;36.51;102414.84;3133502;27;114359;-58
2020/12/26 01:46:29;;;;;;;;;;;;;;;21.47;36.26;102403.03;3134265;27;115348;-58
2020/12/26 01:48:01;;;;;;;;;;;;;;;21.47;36.42;102391.81;3134038;27;114512;-59
2020/12/26 01:49:33;;;;;;;;;;;;;;;21.46;36.24;102388.13;3119823;27;115384;-58
2020/12/26 01:51:04;;;;;;;;;;;;;;;21.44;36.39;102384.75;3129027;27;115291;-59
2020/12/26 01:52:36;;;;;;;;;;;;;;;21.42;36.22;102389.81;3132809;27;114546;-59
2020/12/26 01:54:07;;;;;;;;;;;;;;;21.41;36.20;102382.50;3136948;27;114159;-59
2020/12/26 01:55:40;;;;;;;;;;;;;;;21.39;35.99;102379.16;3134559;27;115884;-59
2020/12/26 01:57:12;;;;;;;;;;;;;;;21.37;36.17;102367.31;3133517;27;114590;-59
2020/12/26 01:58:43;;;;;;;;;;;;;;;21.34;36.11;102362.28;3134026;27;114730;-59
2020/12/26 02:00:15;;;;;;;;;;;;;;;21.33;36.26;102366.19;3132475;27;115855;-59
2020/12/26 02:01:48;;;;;;;;;;;;;;;21.31;36.05;102368.44;3134631;27;116350;-60
2020/12/26 02:03:19;;;;;;;;;;;;;;;21.29;35.98;102374.34;3133649;27;115105;-58
2020/12/26 02:04:51;;;;;;;;;;;;;;;21.28;36.16;102369.84;3134283;27;114639;-59
2020/12/26 02:06:22;;;;;;;;;;;;;;;21.25;36.19;102361.13;3133507;27;116078;-58
2020/12/26 02:07:54;;;;;;;;;;;;;;;21.23;36.13;102360.56;3118017;27;115324;-61
2020/12/26 02:09:26;;;;;;;;;;;;;;;21.20;36.72;102359.16;3128184;27;116225;-58
2020/12/26 02:10:57;;;;;;;;;;;;;;;21.19;36.56;102356.63;3134417;27;115751;-61
2020/12/26 02:12:29;;;;;;;;;;;;;;;21.17;36.67;102350.41;3118825;27;115984;-58
2020/12/26 02:14:00;;;;;;;;;;;;;;;21.15;36.72;102347.06;3128790;27;114791;-58
2020/12/26 02:15:31;;;;;;;;;;;;;;;21.13;36.86;102349.28;3133659;27;115813;-61
2020/12/26 02:17:03;;;;;;;;;;;;;;;21.12;36.72;102358.84;3137337;27;114778;-58
2020/12/26 02:18:34;;;;;;;;;;;;;;;21.10;37.01;102356.28;3131140;27;114134;-59
2020/12/26 02:20:06;;;;;;;;;;;;;;;21.08;36.83;102357.66;3133699;27;114087;-59
2020/12/26 02:21:39;;;;;;;;;;;;;;;21.06;37.24;102348.69;3134295;27;113783;-59
2020/12/26 02:23:10;;;;;;;;;;;;;;;21.05;37.35;102338.56;3117398;27;115245;-59
2020/12/26 02:24:41;;;;;;;;;;;;;;;21.04;37.35;102328.44;3129304;27;114166;-60
2020/12/26 02:26:13;;;;;;;;;;;;;;;21.01;37.09;102329.00;3134188;27;115319;-61
2020/12/26 02:27:45;;;;;;;;;;;;;;;20.99;37.15;102323.66;3133097;27;114255;-60
2020/12/26 02:29:16;;;;;;;;;;;;;;;20.98;37.09;102324.81;3132892;27;114465;-60
2020/12/26 02:30:47;;;;;;;;;;;;;;;20.95;37.22;102330.97;3120419;27;113967;-60
2020/12/26 02:32:19;;;;;;;;;;;;;;;20.95;37.10;102313.25;3129313;27;114191;-60
2020/12/26 02:33:50;;;;;;;;;;;;;;;20.91;37.26;102318.59;3132807;27;114043;-61
2020/12/26 02:35:21;;;;;;;;;;;;;;;20.88;37.38;102319.16;3132170;27;115354;-61
2020/12/26 02:36:52;;;;;;;;;;;;;;;20.86;37.31;102318.56;3133853;27;113921;-60
2020/12/26 02:38:23;;;;;;;;;;;;;;;20.84;37.46;102318.88;3136179;27;114145;-61
2020/12/26 02:39:54;;;;;;;;;;;;;;;20.82;37.69;102321.09;3131687;27;114224;-60
2020/12/26 02:41:26;;;;;;;;;;;;;;;20.79;37.47;102318.84;3113449;27;114508;-60
2020/12/26 02:42:57;;;;;;;;;;;;;;;20.75;37.66;102320.53;3127475;27;115265;-60
2020/12/26 02:44:28;;;;;;;;;;;;;;;20.74;37.55;102324.44;3119077;27;115504;-58
2020/12/26 02:45:59;;;;;;;;;;;;;;;20.72;37.69;102321.06;3128828;27;115317;-61
2020/12/26 02:47:30;;;;;;;;;;;;;;;20.71;37.59;102316.59;3132997;27;114975;-61
2020/12/26 02:49:01;;;;;;;;;;;;;;;20.69;37.67;102313.19;3132721;27;115431;-60
2020/12/26 02:50:33;;;;;;;;;;;;;;;20.67;37.59;102309.81;3134175;27;115995;-60
2020/12/26 02:52:04;;;;;;;;;;;;;;;20.65;37.34;102309.25;3133409;27;114666;-60
2020/12/26 02:53:36;;;;;;;;;;;;;;;20.61;38.03;102313.75;3132714;27;115330;-60
2020/12/26 02:55:07;;;;;;;;;;;;;;;20.58;38.13;102299.41;3133250;27;115404;-60
2020/12/26 02:56:39;;;;;;;;;;;;;;;20.57;38.10;102314.56;3119438;27;114066;-61
2020/12/26 02:58:10;;;;;;;;;;;;;;;20.55;37.95;102309.22;3112719;27;115202;-61
2020/12/26 02:59:41;;;;;;;;;;;;;;;20.53;38.09;102300.25;3130936;27;114679;-61
2020/12/26 03:01:13;;;;;;;;;;;;;;;20.52;38.02;102301.34;3133230;27;115033;-61
2020/12/26 03:02:44;;;;;;;;;;;;;;;20.49;38.01;102293.47;3133975;27;116521;-61
2020/12/26 03:04:15;;;;;;;;;;;;;;;20.47;38.00;102298.53;3130808;27;115511;-61
2020/12/26 03:05:46;;;;;;;;;;;;;;;20.45;37.99;102299.91;3135987;27;116043;-61
2020/12/26 03:07:17;;;;;;;;;;;;;;;20.41;38.00;102294.84;3133969;27;114627;-60
2020/12/26 03:08:48;;;;;;;;;;;;;;;20.40;38.19;102284.72;3135221;27;117696;-60
2020/12/26 03:10:20;;;;;;;;;;;;;;;20.39;37.70;102290.66;3135840;27;115589;-60
2020/12/26 03:11:52;;;;;;;;;;;;;;;20.35;37.92;102287.53;3135520;27;115509;-62
2020/12/26 03:13:23;;;;;;;;;;;;;;;20.34;38.01;102282.19;3135943;27;115398;-62
2020/12/26 03:14:55;;;;;;;;;;;;;;;20.31;38.10;102286.38;3135169;27;116049;-61
2020/12/26 03:16:26;;;;;;;;;;;;;;;20.30;38.07;102283.88;3136284;27;115676;-61
2020/12/26 03:17:57;;;;;;;;;;;;;;;20.28;38.33;102281.28;3135687;27;116167;-60
2020/12/26 03:19:28;;;;;;;;;;;;;;;20.25;38.23;102279.03;3134177;27;114777;-60
2020/12/26 03:20:59;;;;;;;;;;;;;;;20.24;38.18;102279.31;3125459;27;114990;-61
2020/12/26 03:22:36;;;;;;;;;;;;;;;20.22;38.29;102275.91;3121312;27;114175;-59
2020/12/26 03:24:07;;;;;;;;;;;;;;;20.22;38.70;102281.53;3131215;27;114384;-60
2020/12/26 03:25:38;;;;;;;;;;;;;;;20.21;38.54;102285.47;3122091;27;114813;-59
2020/12/26 03:27:09;;;;;;;;;;;;;;;20.21;38.12;102279.88;3130911;27;114367;-61
2020/12/26 03:28:41;;;;;;;;;;;;;;;20.16;38.17;102277.88;3133789;27;113884;-61
2020/12/26 03:30:12;;;;;;;;;;;;;;;20.15;38.40;102278.16;3120415;27;114240;-61
2020/12/26 03:31:43;;;;;;;;;;;;;;;20.14;37.94;102268.03;3118086;27;114456;-60
2020/12/26 03:33:14;;;;;;;;;;;;;;;20.10;37.58;102267.75;3127898;27;114221;-62
2020/12/26 03:34:46;;;;;;;;;;;;;;;20.12;38.02;102265.53;3121403;27;114624;-61
2020/12/26 03:36:17;;;;;;;;;;;;;;;20.07;38.16;102257.09;3129271;27;114095;-61
2020/12/26 03:37:49;;;;;;;;;;;;;;;20.06;38.09;102255.38;3120228;27;114415;-61
2020/12/26 03:39:20;;;;;;;;;;;;;;;20.05;38.01;102264.06;3129023;27;114090;-61
2020/12/26 03:40:51;;;;;;;;;;;;;;;20.04;38.08;102260.41;3133645;27;114188;-61
2020/12/26 03:42:23;;;;;;;;;;;;;;;20.01;37.86;102251.69;3134701;27;114217;-61
2020/12/26 03:43:55;;;;;;;;;;;;;;;19.98;37.95;102242.72;3136021;27;114075;-61
2020/12/26 03:45:27;;;;;;;;;;;;;;;19.95;37.87;102245.22;3134366;27;114309;-60
2020/12/26 03:46:58;;;;;;;;;;;;;;;19.93;37.79;102251.13;3135862;27;114356;-61
2020/12/26 03:48:30;;;;;;;;;;;;;;;19.90;38.09;102246.03;3135401;27;114501;-61
2020/12/26 03:50:01;;;;;;;;;;;;;;;19.91;38.01;102244.94;3135484;27;115305;-61
2020/12/26 03:51:32;;;;;;;;;;;;;;;19.89;38.06;102235.09;3135457;27;113895;-61
2020/12/26 03:53:03;;;;;;;;;;;;;;;19.87;37.91;102235.38;3135317;27;113935;-61
2020/12/26 03:54:34;;;;;;;;;;;;;;;19.86;37.93;102228.06;3135299;27;114312;-61
2020/12/26 03:56:06;;;;;;;;;;;;;;;19.85;38.00;102231.97;3135744;27;115321;-64
2020/12/26 03:57:37;;;;;;;;;;;;;;;19.83;38.23;102231.44;3121840;27;114719;-62
2020/12/26 03:59:10;;;;;;;;;;;;;;;19.82;38.24;102226.06;3127378;27;114375;-62
2020/12/26 04:00:41;;;;;;;;;;;;;;;19.80;38.31;102231.13;3132731;27;117229;-63
2020/12/26 04:02:13;;;;;;;;;;;;;;;19.77;38.32;102224.09;3136289;27;115246;-62
2020/12/26 04:03:44;;;;;;;;;;;;;;;19.75;38.48;102229.16;3134685;27;114759;-62
2020/12/26 04:05:15;;;;;;;;;;;;;;;19.75;38.41;102234.75;3139085;27;114119;-61
2020/12/26 04:06:46;;;;;;;;;;;;;;;19.74;38.46;102241.47;3135108;27;115182;-61
2020/12/26 04:08:17;;;;;;;;;;;;;;;19.73;38.46;102233.31;3134483;27;115168;-61
2020/12/26 04:09:48;;;;;;;;;;;;;;;19.71;38.45;102225.19;3134006;27;114667;-60
2020/12/26 04:11:19;;;;;;;;;;;;;;;19.70;38.63;102233.88;3109574;28;115785;-61
2020/12/26 04:12:51;;;;;;;;;;;;;;;19.68;38.22;102225.72;3121646;27;114764;-61
2020/12/26 04:14:22;;;;;;;;;;;;;;;19.67;38.57;102231.63;3129934;27;115539;-61
2020/12/26 04:15:54;;;;;;;;;;;;;;;19.65;38.46;102234.69;3136269;27;115718;-64
2020/12/26 04:17:25;;;;;;;;;;;;;;;19.64;38.50;102227.38;3122328;27;116005;-63
2020/12/26 04:18:57;;;;;;;;;;;;;;;19.60;38.89;102229.03;3121997;27;115689;-61
2020/12/26 04:20:28;;;;;;;;;;;;;;;19.61;38.58;102227.09;3123426;27;116436;-60
2020/12/26 04:21:59;;;;;;;;;;;;;;;19.58;38.96;102231.25;3123034;27;116323;-60
2020/12/26 04:23:32;;;;;;;;;;;;;;;19.57;38.69;102218.38;3122669;27;116087;-61
2020/12/26 04:25:03;;;;;;;;;;;;;;;19.55;38.81;102215.00;3123554;27;116007;-62
2020/12/26 04:26:34;;;;;;;;;;;;;;;19.53;38.87;102223.66;3126723;27;114924;-62
2020/12/26 04:28:05;;;;;;;;;;;;;;;19.52;38.81;102215.53;3119665;27;115163;-62
2020/12/26 04:29:37;;;;;;;;;;;;;;;19.51;38.80;102216.66;3109890;27;114151;-60
2020/12/26 04:31:08;;;;;;;;;;;;;;;19.48;38.87;102220.00;3117963;27;114225;-60
2020/12/26 04:32:40;;;;;;;;;;;;;;;19.48;38.96;102215.25;3117778;27;113947;-61
2020/12/26 04:34:12;;;;;;;;;;;;;;;19.48;39.01;102214.41;3122327;27;114386;-62
2020/12/26 04:35:43;;;;;;;;;;;;;;;19.45;38.96;102212.97;3119401;27;114269;-61
2020/12/26 04:37:14;;;;;;;;;;;;;;;19.44;39.09;102210.47;3117054;27;114100;-61
2020/12/26 04:38:46;;;;;;;;;;;;;;;19.42;39.07;102209.84;3121457;27;113935;-62
2020/12/26 04:40:17;;;;;;;;;;;;;;;19.38;39.11;102203.94;3122466;27;113901;-62
2020/12/26 04:41:49;;;;;;;;;;;;;;;19.40;39.10;102200.84;3119094;27;114206;-58
2020/12/26 04:43:20;;;;;;;;;;;;;;;19.41;39.02;102194.97;3122308;27;113983;-59
2020/12/26 04:44:52;;;;;;;;;;;;;;;19.38;39.55;102192.72;3120895;27;114370;-59
2020/12/26 04:46:26;;;;;;;;;;;;;;;19.38;39.63;102197.47;3122930;27;113819;-59
2020/12/26 04:48:04;;;;;;;;;;;;;;;19.37;39.42;102202.22;3127244;27;114361;-60
2020/12/26 04:49:37;;;;;;;;;;;;;;;19.34;39.49;102204.75;3121751;27;114319;-59
2020/12/26 04:51:16;;;;;;;;;;;;;;;19.34;39.36;102199.13;3123420;27;115243;-60
2020/12/26 04:52:50;;;;;;;;;;;;;;;19.29;39.46;102194.34;3120859;27;114316;-58
2020/12/26 04:54:25;;;;;;;;;;;;;;;19.30;39.42;102195.19;3120271;27;114363;-59
2020/12/26 04:55:59;;;;;;;;;;;;;;;19.28;39.36;102197.41;3122945;27;115381;-59
2020/12/26 04:57:34;;;;;;;;;;;;;;;19.29;39.36;102190.69;3121972;27;115061;-57
2020/12/26 04:59:06;;;;;;;;;;;;;;;19.26;39.37;102196.84;3116126;27;115129;-57
2020/12/26 05:00:38;;;;;;;;;;;;;;;19.23;39.36;102186.16;3122311;27;115217;-56
2020/12/26 05:02:12;;;;;;;;;;;;;;;19.24;39.32;102182.25;3120982;27;115881;-57
2020/12/26 05:03:44;;;;;;;;;;;;;;;19.21;39.40;102182.78;3121252;27;115313;-57
2020/12/26 05:05:15;;;;;;;;;;;;;;;19.21;39.40;102182.78;3121228;27;115435;-57
2020/12/26 05:06:47;;;;;;;;;;;;;;;19.17;39.49;102187.25;3121334;27;115259;-57
2020/12/26 05:08:18;;;;;;;;;;;;;;;19.17;39.36;102190.06;3121587;27;115706;-57
2020/12/26 05:09:50;;;;;;;;;;;;;;;19.14;39.52;102177.41;3125777;27;114138;-57
2020/12/26 05:11:21;;;;;;;;;;;;;;;19.11;39.61;102175.16;3122033;27;115813;-57
2020/12/26 05:12:52;;;;;;;;;;;;;;;19.11;39.34;102175.16;3119264;27;115010;-57
2020/12/26 05:14:24;;;;;;;;;;;;;;;19.10;39.54;102165.91;3108077;28;114651;-57
2020/12/26 05:15:55;;;;;;;;;;;;;;;19.08;39.43;102162.53;3121404;27;115132;-57
2020/12/26 05:17:26;;;;;;;;;;;;;;;19.06;39.50;102164.75;3122341;27;116010;-58
2020/12/26 05:18:57;;;;;;;;;;;;;;;19.03;39.57;102168.06;3133534;27;115492;-58
2020/12/26 05:20:29;;;;;;;;;;;;;;;19.04;39.76;102154.91;3133971;27;115818;-57
2020/12/26 05:22:00;;;;;;;;;;;;;;;19.02;39.77;102151.56;3134564;27;115900;-58
2020/12/26 05:23:32;;;;;;;;;;;;;;;19.01;39.67;102156.31;3133352;27;115996;-58
2020/12/26 05:25:10;;;;;;;;;;;;;;;19.00;39.65;102153.78;3134230;27;116437;-58
2020/12/26 05:26:43;;;;;;;;;;;;;;;18.99;39.68;102149.28;3132531;27;115146;-58
2020/12/26 05:28:15;;;;;;;;;;;;;;;18.96;39.71;102145.06;3134054;27;116074;-58
2020/12/26 05:29:46;;;;;;;;;;;;;;;18.95;39.82;102140.56;3122552;27;117849;-58
2020/12/26 05:31:19;;;;;;;;;;;;;;;18.92;39.85;102149.53;3134479;27;114612;-57
2020/12/26 05:32:53;;;;;;;;;;;;;;;18.93;39.79;102151.22;3125118;27;114699;-58
2020/12/26 05:34:31;;;;;;;;;;;;;;;18.91;39.95;102150.63;3111405;27;114388;-58
2020/12/26 05:36:03;;;;;;;;;;;;;;;18.90;39.99;102140.53;3129293;27;114318;-58
2020/12/26 05:37:35;;;;;;;;;;;;;;;18.89;40.04;102138.03;3121087;27;114179;-58
2020/12/26 05:39:07;;;;;;;;;;;;;;;18.87;40.00;102132.69;3128068;27;114189;-57
2020/12/26 05:40:42;;;;;;;;;;;;;;;18.86;40.10;102130.97;3135505;27;114738;-58
2020/12/26 05:42:18;;;;;;;;;;;;;;;18.86;40.08;102122.59;3131808;27;114610;-58
2020/12/26 05:43:50;;;;;;;;;;;;;;;18.85;40.30;102123.69;3130846;27;114441;-57
2020/12/26 05:45:21;;;;;;;;;;;;;;;18.82;40.41;102107.44;3128215;27;114328;-58
2020/12/26 05:46:56;;;;;;;;;;;;;;;18.83;40.35;102116.69;3134782;27;114093;-58
2020/12/26 05:48:28;;;;;;;;;;;;;;;18.82;40.27;102120.59;3133630;27;113897;-57
2020/12/26 05:49:59;;;;;;;;;;;;;;;18.78;40.43;102117.50;3133834;27;114120;-57
2020/12/26 05:51:31;;;;;;;;;;;;;;;18.79;40.46;102118.34;3121257;27;114205;-58
2020/12/26 05:53:02;;;;;;;;;;;;;;;18.76;40.81;102111.31;3130053;27;114210;-58
2020/12/26 05:54:34;;;;;;;;;;;;;;;18.73;40.98;102109.03;3136825;27;114841;-58
2020/12/26 05:56:15;;;;;;;;;;;;;;;18.73;40.98;102097.84;3134975;27;114420;-58
2020/12/26 05:57:51;;;;;;;;;;;;;;;18.74;40.77;102095.91;3133629;27;115529;-58
2020/12/26 05:59:23;;;;;;;;;;;;;;;18.71;40.80;102094.50;3128788;27;115230;-58
2020/12/26 06:01:00;;;;;;;;;;;;;;;18.71;41.01;102097.28;3135162;27;115379;-57
2020/12/26 06:02:32;;;;;;;;;;;;;;;18.69;41.18;102099.50;3134362;27;115165;-57
2020/12/26 06:04:09;;;;;;;;;;;;;;;18.68;41.08;102100.59;3133098;27;115637;-58
2020/12/26 06:05:42;;;;;;;;;;;;;;;18.66;41.27;102111.25;3120600;27;115261;-58
2020/12/26 06:07:13;;;;;;;;;;;;;;;18.65;41.27;102110.41;3129722;27;115391;-58
2020/12/26 06:08:46;;;;;;;;;;;;;;;18.67;41.16;102102.56;3133444;27;115253;-57
2020/12/26 06:10:17;;;;;;;;;;;;;;;18.64;41.21;102102.25;3133849;27;114163;-58
2020/12/26 06:11:49;;;;;;;;;;;;;;;18.65;41.27;102090.81;3132198;27;114202;-59
2020/12/26 06:13:21;;;;;;;;;;;;;;;18.62;41.54;102091.31;3134008;27;114318;-58
2020/12/26 06:14:53;;;;;;;;;;;;;;;18.60;41.55;102087.13;3131776;27;114708;-58
2020/12/26 06:16:25;;;;;;;;;;;;;;;18.60;41.57;102076.75;3138193;27;115471;-58
2020/12/26 06:17:58;;;;;;;;;;;;;;;18.60;41.67;102075.91;3120082;27;115928;-58
2020/12/26 06:19:29;;;;;;;;;;;;;;;18.57;41.81;102080.09;3128447;27;115224;-58
2020/12/26 06:21:03;;;;;;;;;;;;;;;18.56;41.47;102072.81;3133666;27;114788;-58
2020/12/26 06:22:42;;;;;;;;;;;;;;;18.54;41.57;102076.97;3120367;27;114623;-58
2020/12/26 06:24:14;;;;;;;;;;;;;;;18.54;41.62;102062.97;3129096;27;114819;-58
2020/12/26 06:25:46;;;;;;;;;;;;;;;18.54;41.35;102069.44;3132317;27;114675;-58
2020/12/26 06:27:22;;;;;;;;;;;;;;;18.52;41.47;102068.00;3131352;27;114922;-58
2020/12/26 06:28:53;;;;;;;;;;;;;;;18.51;41.38;102061.53;3134190;27;115959;-58
2020/12/26 06:30:25;;;;;;;;;;;;;;;18.49;41.46;102058.16;3119096;27;118473;-58
2020/12/26 06:31:57;;;;;;;;;;;;;;;18.49;41.24;102054.50;3129924;27;115811;-58
2020/12/26 06:33:29;;;;;;;;;;;;;;;18.46;41.26;102050.31;3132655;27;114745;-59
2020/12/26 06:35:00;;;;;;;;;;;;;;;18.46;41.39;102050.31;3132758;27;116136;-58
2020/12/26 06:36:32;;;;;;;;;;;;;;;18.45;41.33;102059.81;3133631;27;115880;-58
2020/12/26 06:38:16;;;;;;;;;;;;;;;18.43;41.53;102058.41;3136429;27;116057;-58
2020/12/26 06:39:57;;;;;;;;;;;;;;;18.41;41.77;102055.00;3118852;27;117314;-58
2020/12/26 06:41:36;;;;;;;;;;;;;;;18.41;41.84;102064.25;3130940;27;113984;-57
2020/12/26 06:43:08;;;;;;;;;;;;;;;18.40;41.76;102065.34;3131860;27;114577;-58
2020/12/26 06:44:40;;;;;;;;;;;;;;;18.40;41.69;102065.34;3128187;27;114425;-58
2020/12/26 06:46:13;;;;;;;;;;;;;;;18.39;41.55;102055.31;3134156;27;116397;-58
2020/12/26 06:47:45;;;;;;;;;;;;;;;18.39;41.85;102046.06;3134479;27;114383;-58
2020/12/26 06:49:22;;;;;;;;;;;;;;;18.37;41.83;102040.72;3118944;27;114341;-58
2020/12/26 06:50:53;;;;;;;;;;;;;;;18.39;41.79;102046.06;3117326;27;114199;-57
2020/12/26 06:52:40;;;;;;;;;;;;;;;18.41;41.70;102041.03;3129568;27;114128;-58
2020/12/26 06:54:12;;;;;;;;;;;;;;;18.43;41.79;102042.47;3132038;27;114071;-58
2020/12/26 06:55:49;;;;;;;;;;;;;;;18.47;41.55;102046.41;3120039;27;114394;-58
2020/12/26 06:57:37;;;;;;;;;;;;;;;18.52;42.21;102045.59;3122333;27;114427;-57
2020/12/26 06:59:11;;;;;;;;;;;;;;;18.56;41.79;102041.19;3118538;27;114068;-58
2020/12/26 07:00:42;;;;;;;;;;;;;;;18.57;42.44;102038.13;3116929;27;114519;-58
2020/12/26 07:02:14;;;;;;;;;;;;;;;18.61;42.25;102030.88;3132801;27;114053;-58
2020/12/26 07:03:45;;;;;;;;;;;;;;;18.65;42.42;102026.41;3134170;27;116011;-58
2020/12/26 07:05:35;;;;;;;;;;;;;;;18.70;42.39;102019.16;3115675;27;115483;-59
2020/12/26 07:07:06;;;;;;;;;;;;;;;18.75;42.51;102002.41;3117828;27;115173;-59
2020/12/26 07:08:37;;;;;;;;;;;;;;;18.79;42.46;102001.59;3127838;27;115251;-58
2020/12/26 07:10:09;;;;;;;;;;;;;;;18.84;42.46;102000.78;3110059;27;114624;-59
2020/12/26 07:11:53;;;;;;;;;;;;;;;18.88;42.38;101999.97;3125043;27;115534;-59
2020/12/26 07:13:43;;;;;;;;;;;;;;;18.93;42.55;102000.00;3133844;27;115638;-58
2020/12/26 07:15:30;;;;;;;;;;;;;;;18.99;42.42;102001.69;3133039;27;116836;-58
2020/12/26 07:17:05;;;;;;;;;;;;;;;19.05;42.26;101991.34;3133378;27;115220;-58
2020/12/26 07:18:42;;;;;;;;;;;;;;;19.09;42.07;101992.50;3124167;27;116987;-58
2020/12/26 07:20:26;;;;;;;;;;;;;;;19.14;41.70;101994.47;3127850;27;114304;-58
2020/12/26 07:22:05;;;;;;;;;;;;;;;19.19;41.71;101988.91;3133535;27;114647;-58
2020/12/26 07:23:37;;;;;;;;;;;;;;;19.22;41.53;101986.38;3131859;27;114692;-58
2020/12/26 07:25:08;;;;;;;;;;;;;;;19.27;41.53;101985.56;3136291;27;114573;-58
2020/12/26 07:26:40;;;;;;;;;;;;;;;19.31;41.47;101986.69;3127424;27;115991;-58
2020/12/26 07:28:12;;;;;;;;;;;;;;;19.36;41.32;101978.31;3124072;27;115945;-58
2020/12/26 07:30:00;;;;;;;;;;;;;;;19.40;41.41;101982.25;3124203;27;115977;-59
2020/12/26 07:31:47;;;;;;;;;;;;;;;19.44;41.54;101967.44;3133512;27;114644;-60
2020/12/26 07:33:37;;;;;;;;;;;;;;;19.49;41.42;101958.19;3123303;27;116276;-59
2020/12/26 07:35:12;;;;;;;;;;;;;;;19.53;40.99;101951.75;3118493;27;115760;-58
2020/12/26 07:36:43;;;;;;;;;;;;;;;19.57;41.32;101942.81;3128778;27;114907;-59
2020/12/26 07:38:14;;;;;;;;;;;;;;;19.60;40.94;101947.84;3118608;27;116082;-59
2020/12/26 07:39:45;;;;;;;;;;;;;;;19.64;40.98;101944.22;3128488;27;114696;-59
2020/12/26 07:41:17;;;;;;;;;;;;;;;19.67;40.83;101929.63;3133775;27;115989;-59
2020/12/26 07:42:49;;;;;;;;;;;;;;;19.70;40.80;101937.50;3118890;27;115244;-59
2020/12/26 07:44:26;;;;;;;;;;;;;;;19.73;40.69;101941.69;3122262;27;115952;-58
2020/12/26 07:45:57;;;;;;;;;;;;;;;19.77;40.95;101940.00;3132240;27;115722;-59
2020/12/26 07:47:33;;;;;;;;;;;;;;;19.79;40.50;101921.81;3135868;27;114382;-59
2020/12/26 07:49:04;;;;;;;;;;;;;;;19.83;40.29;101922.94;3118551;27;114237;-59
2020/12/26 07:50:37;;;;;;;;;;;;;;;19.86;40.27;101930.78;3130174;27;114164;-59